Time;durP1;ratioP1;P1;durP2;ratioP2;P2;SDS_P1;SDS_P2;PMS_P1;PMS_P2;Temp;Humidity;BMP_temperature;BMP_pressure;BME280_temperature;BME280_humidity;BME280_pressure;Samples;Min_cycle;Max_cycle;Signal;HPM_P1;HPM_P2
2023/07/29 00:01:14;;;;;;;;;;;;;;;22.84;61.56;100359.69;4936243;28;4226;-74
2023/07/29 00:03:41;;;;;;;;;;;;;;;22.83;61.59;100353.19;4938440;28;4048;-73
2023/07/29 00:06:09;;;;;;;;;;;;;;;22.82;61.63;100348.09;4938443;28;4138;-74
2023/07/29 00:08:35;;;;;;;;;;;;;;;22.82;61.44;100343.06;4963862;28;4142;-73
2023/07/29 00:11:01;;;;;;;;;;;;;;;22.82;61.41;100348.84;4940231;28;4133;-74
2023/07/29 00:13:28;;;;;;;;;;;;;;;22.82;61.44;100342.31;4938174;28;4194;-73
2023/07/29 00:15:55;;;;;;;;;;;;;;;22.79;61.52;100350.16;4937908;28;4203;-73
2023/07/29 00:18:22;;;;;;;;;;;;;;;22.80;61.59;100345.88;4935994;28;3951;-74
2023/07/29 00:20:50;;;;;;;;;;;;;;;22.78;61.41;100351.59;4934970;28;4112;-74
2023/07/29 00:23:18;;;;;;;;;;;;;;;22.80;61.58;100352.38;4941145;28;4136;-73
2023/07/29 00:25:45;;;;;;;;;;;;;;;22.80;61.57;100354.53;4936488;28;4234;-73
2023/07/29 00:28:11;;;;;;;;;;;;;;;22.79;61.42;100358.81;4970554;28;4076;-73
2023/07/29 00:30:38;;;;;;;;;;;;;;;22.79;61.51;100355.94;4927096;28;4291;-73
2023/07/29 00:33:04;;;;;;;;;;;;;;;22.80;61.47;100354.53;4970489;28;4067;-74
2023/07/29 00:35:31;;;;;;;;;;;;;;;22.77;61.60;100355.91;4936557;28;4108;-73
2023/07/29 00:37:59;;;;;;;;;;;;;;;22.76;61.31;100345.75;4952337;28;4073;-73
2023/07/29 00:40:25;;;;;;;;;;;;;;;22.76;61.59;100348.66;4933996;28;4171;-73
2023/07/29 00:42:52;;;;;;;;;;;;;;;22.76;61.33;100351.53;4943372;28;4019;-74
2023/07/29 00:45:18;;;;;;;;;;;;;;;22.75;61.54;100341.41;4937407;28;4120;-73
2023/07/29 00:47:45;;;;;;;;;;;;;;;22.74;61.36;100337.78;4937642;28;4262;-74
2023/07/29 00:50:11;;;;;;;;;;;;;;;22.77;61.48;100329.94;4964591;28;4324;-74
2023/07/29 00:52:38;;;;;;;;;;;;;;;22.76;61.40;100316.91;4929098;28;4051;-73
2023/07/29 00:55:05;;;;;;;;;;;;;;;22.75;61.40;100324.09;4938357;28;4164;-73
2023/07/29 00:57:31;;;;;;;;;;;;;;;22.74;61.57;100322.63;4968728;28;4290;-73
2023/07/29 00:59:57;;;;;;;;;;;;;;;22.74;61.55;100323.34;4965354;28;4143;-73
2023/07/29 01:02:24;;;;;;;;;;;;;;;22.73;61.26;100309.59;4967300;28;4287;-74
2023/07/29 01:04:54;;;;;;;;;;;;;;;22.73;61.44;100307.44;4937206;28;4137;-74
2023/07/29 01:07:30;;;;;;;;;;;;;;;22.72;61.41;100311.00;4933917;28;4056;-74
2023/07/29 01:10:03;;;;;;;;;;;;;;;22.73;61.51;100309.59;4965741;28;5643;-74
2023/07/29 01:12:58;;;;;;;;;;;;;;;22.72;61.41;100306.00;4927851;28;4218;-74
2023/07/29 01:15:47;;;;;;;;;;;;;;;22.72;61.43;100294.44;4928933;28;4355;-73
2023/07/29 01:18:15;;;;;;;;;;;;;;;22.71;61.28;100298.72;4925395;28;4015;-73
2023/07/29 01:20:42;;;;;;;;;;;;;;;22.72;61.17;100300.22;4962125;28;4050;-74
2023/07/29 01:23:08;;;;;;;;;;;;;;;22.71;61.43;100298.00;4966638;28;4041;-73
2023/07/29 01:25:35;;;;;;;;;;;;;;;22.71;61.42;100298.00;4938503;28;4048;-74
2023/07/29 01:28:01;;;;;;;;;;;;;;;22.71;61.09;100292.22;4962445;28;4123;-74
2023/07/29 01:30:33;;;;;;;;;;;;;;;22.70;61.44;100303.06;4932663;28;4105;-70
2023/07/29 01:33:20;;;;;;;;;;;;;;;22.71;61.28;100303.78;4967762;28;4041;-74
2023/07/29 01:35:47;;;;;;;;;;;;;;;22.70;61.10;100313.84;4932345;28;4054;-74
2023/07/29 01:38:13;;;;;;;;;;;;;;;22.68;61.40;100299.38;4927189;28;4231;-73
2023/07/29 01:40:40;;;;;;;;;;;;;;;22.69;61.35;100300.84;4967329;28;4160;-74
2023/07/29 01:43:09;;;;;;;;;;;;;;;22.70;60.98;100296.53;4966447;28;4027;-74
2023/07/29 01:45:38;;;;;;;;;;;;;;;22.69;61.20;100290.00;4942238;28;5418;-73
2023/07/29 01:48:04;;;;;;;;;;;;;;;22.70;61.32;100296.53;4967567;28;4118;-73
2023/07/29 01:50:31;;;;;;;;;;;;;;;22.69;61.04;100300.84;4932959;28;4073;-73
2023/07/29 01:52:58;;;;;;;;;;;;;;;22.70;61.32;100308.06;4941841;28;4720;-74
2023/07/29 01:55:24;;;;;;;;;;;;;;;22.68;61.24;100305.16;4941508;28;4207;-73
2023/07/29 01:57:52;;;;;;;;;;;;;;;22.67;61.30;100315.19;4947183;28;4258;-74
2023/07/29 02:00:19;;;;;;;;;;;;;;;22.67;61.06;100304.38;4931781;28;4926;-73
2023/07/29 02:02:46;;;;;;;;;;;;;;;22.67;61.04;100313.03;4940655;28;4077;-74
2023/07/29 02:05:12;;;;;;;;;;;;;;;22.66;60.91;100305.81;4941142;28;4170;-73
2023/07/29 02:07:40;;;;;;;;;;;;;;;22.68;61.33;100308.03;4938895;28;4190;-74
2023/07/29 02:10:06;;;;;;;;;;;;;;;22.65;61.19;100300.72;4933986;28;4127;-74
2023/07/29 02:12:33;;;;;;;;;;;;;;;22.66;61.03;100313.75;4940606;28;4057;-73
2023/07/29 02:15:00;;;;;;;;;;;;;;;22.68;60.96;100310.91;4935002;28;4191;-74
2023/07/29 02:17:26;;;;;;;;;;;;;;;22.66;61.20;100305.09;4933791;28;4171;-74
2023/07/29 02:19:53;;;;;;;;;;;;;;;22.64;61.26;100302.88;4931159;28;4194;-74
2023/07/29 02:22:19;;;;;;;;;;;;;;;22.66;61.31;100299.31;4955127;28;4210;-74
2023/07/29 02:24:46;;;;;;;;;;;;;;;22.64;61.05;100299.97;4933937;28;4157;-74
2023/07/29 02:27:12;;;;;;;;;;;;;;;22.64;61.26;100299.25;4929442;28;4099;-73
2023/07/29 02:29:39;;;;;;;;;;;;;;;22.64;61.26;100302.13;4939178;28;4228;-73
2023/07/29 02:32:05;;;;;;;;;;;;;;;22.64;61.38;100293.47;4942186;28;4124;-74
2023/07/29 02:34:32;;;;;;;;;;;;;;;22.63;61.14;100294.88;4947105;28;4573;-74
2023/07/29 02:36:58;;;;;;;;;;;;;;;22.64;61.14;100287.72;4969395;28;5051;-74
2023/07/29 02:39:25;;;;;;;;;;;;;;;22.63;60.98;100292.75;4931784;28;4146;-74
2023/07/29 02:41:52;;;;;;;;;;;;;;;22.63;60.92;100283.34;4930394;28;4069;-73
2023/07/29 02:44:19;;;;;;;;;;;;;;;22.63;60.78;100297.78;4947276;28;4123;-74
2023/07/29 02:46:46;;;;;;;;;;;;;;;22.62;61.10;100296.31;4938096;28;4186;-74
2023/07/29 02:49:12;;;;;;;;;;;;;;;22.63;61.01;100297.78;4936983;28;4181;-74
2023/07/29 02:51:39;;;;;;;;;;;;;;;22.61;61.21;100289.81;4953279;28;4095;-73
2023/07/29 02:54:05;;;;;;;;;;;;;;;22.62;61.03;100304.97;4930361;28;4154;-74
2023/07/29 02:56:32;;;;;;;;;;;;;;;22.59;61.12;100302.03;4933066;28;4064;-74
2023/07/29 02:58:58;;;;;;;;;;;;;;;22.61;61.03;100304.22;4967939;28;4204;-74
2023/07/29 03:01:25;;;;;;;;;;;;;;;22.59;61.08;100307.78;4931785;28;4206;-74
2023/07/29 03:03:52;;;;;;;;;;;;;;;22.61;61.11;100306.38;4932082;28;4091;-73
2023/07/29 03:06:19;;;;;;;;;;;;;;;22.58;61.08;100299.81;4938665;28;4378;-73
2023/07/29 03:08:45;;;;;;;;;;;;;;;22.59;60.88;100304.91;4937959;28;4081;-73
2023/07/29 03:11:12;;;;;;;;;;;;;;;22.59;60.99;100299.13;4940897;28;4136;-74
2023/07/29 03:13:39;;;;;;;;;;;;;;;22.61;60.98;100294.81;4938174;28;4146;-74
2023/07/29 03:16:09;;;;;;;;;;;;;;;22.59;61.05;100292.63;4932239;28;4209;-74
2023/07/29 03:18:37;;;;;;;;;;;;;;;22.59;61.08;100293.38;4928384;28;4324;-74
2023/07/29 03:21:04;;;;;;;;;;;;;;;22.59;60.76;100286.88;4941465;28;4088;-74
2023/07/29 03:23:30;;;;;;;;;;;;;;;22.58;60.76;100297.66;4931304;28;4363;-73
2023/07/29 03:25:58;;;;;;;;;;;;;;;22.58;60.68;100294.75;4939668;28;4116;-74
2023/07/29 03:28:32;;;;;;;;;;;;;;;22.57;60.76;100284.66;4928735;28;4096;-74
2023/07/29 03:30:58;;;;;;;;;;;;;;;22.58;60.99;100303.41;4969194;28;3881;-74
2023/07/29 03:33:25;;;;;;;;;;;;;;;22.57;60.88;100290.41;4931008;28;4213;-74
2023/07/29 03:35:51;;;;;;;;;;;;;;;22.57;61.07;100293.31;4936534;28;3997;-74
2023/07/29 03:38:18;;;;;;;;;;;;;;;22.56;61.04;100283.19;4928269;28;4232;-73
2023/07/29 03:40:44;;;;;;;;;;;;;;;22.55;60.86;100284.59;4952592;28;4241;-74
2023/07/29 03:43:11;;;;;;;;;;;;;;;22.56;60.87;100283.19;4929288;28;4274;-74
2023/07/29 03:45:38;;;;;;;;;;;;;;;22.56;61.02;100283.19;4930062;28;4240;-73
2023/07/29 03:48:04;;;;;;;;;;;;;;;22.55;61.04;100281.69;4934853;28;4231;-73
2023/07/29 03:50:32;;;;;;;;;;;;;;;22.56;60.67;100276.66;4927418;28;4190;-74
2023/07/29 03:52:58;;;;;;;;;;;;;;;22.55;61.04;100267.28;4939558;28;4148;-74
2023/07/29 03:55:25;;;;;;;;;;;;;;;22.54;60.98;100271.59;4930322;28;4090;-74
2023/07/29 03:57:51;;;;;;;;;;;;;;;22.55;60.90;100269.44;4938367;28;4292;-74
2023/07/29 04:00:18;;;;;;;;;;;;;;;22.54;61.05;100274.47;4940154;28;4145;-74
2023/07/29 04:02:47;;;;;;;;;;;;;;;22.53;61.03;100275.88;4929518;28;4076;-74
2023/07/29 04:05:14;;;;;;;;;;;;;;;22.53;60.77;100278.75;4950410;28;4066;-74
2023/07/29 04:07:40;;;;;;;;;;;;;;;22.53;60.90;100272.97;4939127;28;4049;-74
2023/07/29 04:10:07;;;;;;;;;;;;;;;22.53;60.77;100272.97;4944023;28;4154;-74
2023/07/29 04:12:33;;;;;;;;;;;;;;;22.54;60.80;100282.38;4968557;28;4274;-74
2023/07/29 04:14:59;;;;;;;;;;;;;;;22.54;60.88;100273.72;4938067;28;4069;-74
2023/07/29 04:17:26;;;;;;;;;;;;;;;22.54;60.66;100279.47;4937839;28;4418;-73
2023/07/29 04:19:52;;;;;;;;;;;;;;;22.52;60.75;100280.19;4929783;28;4055;-74
2023/07/29 04:22:21;;;;;;;;;;;;;;;22.52;60.81;100280.19;4930560;28;4275;-74
2023/07/29 04:24:48;;;;;;;;;;;;;;;22.52;60.73;100277.28;4929825;28;4171;-73
2023/07/29 04:27:14;;;;;;;;;;;;;;;22.53;60.61;100267.22;4941350;28;4261;-74
2023/07/29 04:29:41;;;;;;;;;;;;;;;22.54;60.79;100274.47;4930103;28;4032;-73
2023/07/29 04:32:07;;;;;;;;;;;;;;;22.55;60.66;100270.16;4952898;28;4204;-74
2023/07/29 04:34:33;;;;;;;;;;;;;;;22.53;60.68;100269.38;4966584;28;4114;-69
2023/07/29 04:37:00;;;;;;;;;;;;;;;22.52;60.98;100271.53;4936683;28;3982;-70
2023/07/29 04:39:26;;;;;;;;;;;;;;;22.51;61.02;100275.81;4953682;28;4132;-66
2023/07/29 04:41:53;;;;;;;;;;;;;;;22.51;60.87;100270.03;4936241;28;4475;-66
2023/07/29 04:44:19;;;;;;;;;;;;;;;22.52;60.88;100274.41;4937237;28;4148;-66
2023/07/29 04:46:46;;;;;;;;;;;;;;;22.50;60.71;100280.13;4926546;28;4154;-66
2023/07/29 04:49:12;;;;;;;;;;;;;;;22.51;60.99;100267.16;4940382;28;4403;-66
2023/07/29 04:51:39;;;;;;;;;;;;;;;22.52;60.96;100276.56;4927523;28;4155;-66
2023/07/29 04:54:05;;;;;;;;;;;;;;;22.52;61.25;100283.06;4937075;28;4088;-66
2023/07/29 04:56:32;;;;;;;;;;;;;;;22.52;61.07;100274.41;4938744;28;4134;-66
2023/07/29 04:58:58;;;;;;;;;;;;;;;22.51;61.15;100270.03;4927828;28;4233;-66
2023/07/29 05:01:25;;;;;;;;;;;;;;;22.51;61.15;100263.53;4929478;28;4158;-66
2023/07/29 05:03:51;;;;;;;;;;;;;;;22.51;60.81;100272.91;4929503;28;4149;-66
2023/07/29 05:06:18;;;;;;;;;;;;;;;22.51;60.84;100264.25;4936370;28;4171;-66
2023/07/29 05:08:44;;;;;;;;;;;;;;;22.51;61.02;100257.78;4929185;28;4159;-66
2023/07/29 05:11:11;;;;;;;;;;;;;;;22.50;60.83;100262.81;4927649;28;4161;-66
2023/07/29 05:13:38;;;;;;;;;;;;;;;22.50;61.09;100262.81;4965735;28;4240;-66
2023/07/29 05:16:04;;;;;;;;;;;;;;;22.50;61.11;100274.34;4928339;28;5140;-66
2023/07/29 05:18:32;;;;;;;;;;;;;;;22.49;61.00;100272.88;4968778;28;4236;-66
2023/07/29 05:20:58;;;;;;;;;;;;;;;22.50;61.05;100274.34;4926225;28;4173;-67
2023/07/29 05:23:25;;;;;;;;;;;;;;;22.51;61.09;100280.84;4931972;28;4237;-66
2023/07/29 05:25:51;;;;;;;;;;;;;;;22.51;60.99;100277.97;4921229;28;4640;-66
2023/07/29 05:28:18;;;;;;;;;;;;;;;22.50;61.15;100277.22;4941816;28;4290;-66
2023/07/29 05:30:44;;;;;;;;;;;;;;;22.50;61.00;100280.13;4929064;28;4216;-66
2023/07/29 05:33:11;;;;;;;;;;;;;;;22.51;60.89;100275.81;4941695;28;4139;-66
2023/07/29 05:35:38;;;;;;;;;;;;;;;22.50;60.92;100277.22;4952640;28;4166;-66
2023/07/29 05:38:08;;;;;;;;;;;;;;;22.49;61.04;100269.25;4930854;28;4131;-66
2023/07/29 05:40:34;;;;;;;;;;;;;;;22.49;60.97;100272.88;4937293;28;4081;-66
2023/07/29 05:43:00;;;;;;;;;;;;;;;22.49;61.07;100267.09;4929801;28;4330;-66
2023/07/29 05:45:27;;;;;;;;;;;;;;;22.50;60.88;100262.81;4934061;28;4045;-67
2023/07/29 05:47:54;;;;;;;;;;;;;;;22.50;60.88;100254.16;4933543;28;4148;-66
2023/07/29 05:50:20;;;;;;;;;;;;;;;22.50;60.85;100257.03;4938561;28;4074;-66
2023/07/29 05:52:47;;;;;;;;;;;;;;;22.49;61.29;100252.66;4929449;28;3980;-67
2023/07/29 05:55:14;;;;;;;;;;;;;;;22.49;60.94;100243.28;4940551;28;4197;-66
2023/07/29 05:57:40;;;;;;;;;;;;;;;22.49;60.78;100246.91;4930456;28;5008;-66
2023/07/29 06:00:09;;;;;;;;;;;;;;;22.48;60.94;100236.78;4937284;28;4210;-66
2023/07/29 06:02:40;;;;;;;;;;;;;;;22.49;61.06;100231.75;4935092;28;4051;-66
2023/07/29 06:05:09;;;;;;;;;;;;;;;22.49;61.18;100234.63;4952641;28;4141;-66
2023/07/29 06:07:36;;;;;;;;;;;;;;;22.49;60.95;100234.63;4935501;28;4151;-66
2023/07/29 06:10:02;;;;;;;;;;;;;;;22.48;60.96;100236.78;4940315;28;4061;-66
2023/07/29 06:12:29;;;;;;;;;;;;;;;22.48;61.19;100236.78;4928852;28;4212;-66
2023/07/29 06:14:55;;;;;;;;;;;;;;;22.49;61.04;100238.25;4932436;28;4068;-66
2023/07/29 06:17:21;;;;;;;;;;;;;;;22.49;61.15;100241.13;4937416;28;4046;-66
2023/07/29 06:19:48;;;;;;;;;;;;;;;22.50;61.13;100239.00;4929584;28;4152;-66
2023/07/29 06:22:15;;;;;;;;;;;;;;;22.49;61.20;100244.00;4937693;28;4061;-66
2023/07/29 06:24:41;;;;;;;;;;;;;;;22.48;60.92;100245.44;4952801;28;4291;-66
2023/07/29 06:27:07;;;;;;;;;;;;;;;22.49;61.03;100252.66;4940265;28;4153;-66
2023/07/29 06:29:34;;;;;;;;;;;;;;;22.48;60.81;100248.31;4938576;28;4228;-66
2023/07/29 06:32:00;;;;;;;;;;;;;;;22.48;61.13;100253.38;4937395;28;4087;-66
2023/07/29 06:34:27;;;;;;;;;;;;;;;22.48;61.13;100271.41;4938660;28;3994;-66
2023/07/29 06:36:53;;;;;;;;;;;;;;;22.47;60.87;100269.94;4935936;28;4237;-66
2023/07/29 06:39:19;;;;;;;;;;;;;;;22.47;61.21;100263.41;4937650;28;4143;-66
2023/07/29 06:41:46;;;;;;;;;;;;;;;22.47;61.09;100272.81;4969941;28;4087;-66
2023/07/29 06:44:14;;;;;;;;;;;;;;;22.46;61.11;100271.34;4929671;28;3984;-66
2023/07/29 06:46:40;;;;;;;;;;;;;;;22.48;61.22;100277.19;4935306;28;4120;-66
2023/07/29 06:49:07;;;;;;;;;;;;;;;22.48;61.09;100277.19;4938457;28;4573;-66
2023/07/29 06:51:35;;;;;;;;;;;;;;;22.47;61.22;100274.97;4939682;28;4192;-66
2023/07/29 06:54:01;;;;;;;;;;;;;;;22.47;61.03;100275.72;4938635;28;4031;-66
2023/07/29 06:56:28;;;;;;;;;;;;;;;22.47;61.11;100272.81;4935780;28;4063;-66
2023/07/29 06:58:54;;;;;;;;;;;;;;;22.47;61.13;100269.94;4934792;28;4161;-66
2023/07/29 07:01:21;;;;;;;;;;;;;;;22.48;61.07;100268.53;4938438;28;4168;-66
2023/07/29 07:03:47;;;;;;;;;;;;;;;22.47;61.05;100269.94;4936496;28;4159;-66
2023/07/29 07:06:13;;;;;;;;;;;;;;;22.48;61.08;100264.91;4936291;28;4199;-66
2023/07/29 07:08:41;;;;;;;;;;;;;;;22.48;61.13;100259.88;4936030;28;4172;-66
2023/07/29 07:11:08;;;;;;;;;;;;;;;22.47;61.12;100269.94;4932534;28;4159;-66
2023/07/29 07:13:34;;;;;;;;;;;;;;;22.47;60.96;100258.41;4935083;28;4059;-66
2023/07/29 07:16:00;;;;;;;;;;;;;;;22.48;61.08;100259.13;4937535;28;4168;-67
2023/07/29 07:18:27;;;;;;;;;;;;;;;22.48;60.82;100271.41;4939412;28;4283;-66
2023/07/29 07:20:53;;;;;;;;;;;;;;;22.47;60.74;100264.19;4936469;28;4152;-66
2023/07/29 07:23:20;;;;;;;;;;;;;;;22.48;61.08;100271.41;4931006;28;4099;-66
2023/07/29 07:25:46;;;;;;;;;;;;;;;22.30;64.81;100268.00;4938371;28;4048;-68
2023/07/29 07:28:12;;;;;;;;;;;;;;;22.38;68.13;100263.22;4933999;28;4301;-64
2023/07/29 07:30:39;;;;;;;;;;;;;;;21.87;74.28;100252.28;4935360;28;4078;-64
2023/07/29 07:33:05;;;;;;;;;;;;;;;22.14;74.81;100254.53;4940035;28;4035;-64
2023/07/29 07:35:32;;;;;;;;;;;;;;;22.23;73.46;100249.06;4939002;28;4140;-64
2023/07/29 07:38:01;;;;;;;;;;;;;;;22.40;71.56;100242.31;4941563;28;4159;-64
2023/07/29 07:40:27;;;;;;;;;;;;;;;22.09;74.11;100235.66;4936940;28;3980;-64
2023/07/29 07:42:54;;;;;;;;;;;;;;;21.90;75.34;100234.38;4935729;28;4190;-63
2023/07/29 07:45:20;;;;;;;;;;;;;;;21.99;74.61;100241.13;4937260;28;4207;-63
2023/07/29 07:47:47;;;;;;;;;;;;;;;22.04;74.92;100236.22;4937437;28;4141;-63
2023/07/29 07:50:14;;;;;;;;;;;;;;;22.35;73.58;100234.97;4936226;28;4212;-63
2023/07/29 07:52:40;;;;;;;;;;;;;;;22.47;72.90;100240.34;4940311;28;4151;-64
2023/07/29 07:55:07;;;;;;;;;;;;;;;22.45;73.89;100234.50;4940136;28;4096;-64
2023/07/29 07:57:33;;;;;;;;;;;;;;;22.57;72.92;100234.88;4938805;28;4163;-64
2023/07/29 07:59:59;;;;;;;;;;;;;;;22.61;72.49;100237.09;4938740;28;4019;-64
2023/07/29 08:02:26;;;;;;;;;;;;;;;22.61;73.05;100237.88;4940631;28;4083;-64
2023/07/29 08:04:52;;;;;;;;;;;;;;;22.68;72.94;100247.44;4938323;28;3980;-63
2023/07/29 08:07:19;;;;;;;;;;;;;;;22.72;72.36;100235.97;4941683;28;4162;-63
2023/07/29 08:09:45;;;;;;;;;;;;;;;22.73;71.97;100241.06;4938518;28;4048;-64
2023/07/29 08:12:12;;;;;;;;;;;;;;;22.74;72.05;100239.66;4938325;28;4169;-64
2023/07/29 08:14:38;;;;;;;;;;;;;;;22.77;71.75;100243.34;4939773;28;4096;-65
2023/07/29 08:17:05;;;;;;;;;;;;;;;22.79;71.59;100228.94;4938063;28;4050;-65
2023/07/29 08:19:31;;;;;;;;;;;;;;;22.91;71.17;100229.28;4935411;28;4231;-65
2023/07/29 08:21:58;;;;;;;;;;;;;;;22.86;71.22;100227.72;4937792;28;4235;-65
2023/07/29 08:24:24;;;;;;;;;;;;;;;22.75;72.81;100223.09;4934962;28;4022;-65
2023/07/29 08:26:51;;;;;;;;;;;;;;;22.79;72.35;100223.16;4936683;28;4126;-65
2023/07/29 08:29:17;;;;;;;;;;;;;;;22.77;74.26;100229.63;4940624;28;4112;-65
2023/07/29 08:31:44;;;;;;;;;;;;;;;22.94;71.46;100221.41;4938842;28;4062;-65
2023/07/29 08:34:10;;;;;;;;;;;;;;;23.00;71.02;100224.47;4939396;28;4078;-65
2023/07/29 08:36:37;;;;;;;;;;;;;;;22.98;71.14;100216.47;4937536;28;4282;-65
2023/07/29 08:39:04;;;;;;;;;;;;;;;22.84;72.77;100224.00;4937753;28;3976;-66
2023/07/29 08:41:31;;;;;;;;;;;;;;;22.92;73.24;100219.19;4937157;28;4036;-65
2023/07/29 08:44:18;;;;;;;;;;;;;;;22.97;70.92;100212.09;4940579;28;4105;-65
2023/07/29 08:46:45;;;;;;;;;;;;;;;22.94;71.38;100216.34;4935730;28;4146;-65
2023/07/29 08:49:11;;;;;;;;;;;;;;;23.05;70.87;100222.44;4941044;28;4399;-65
2023/07/29 08:51:37;;;;;;;;;;;;;;;22.96;70.78;100219.28;4938655;28;4187;-65
2023/07/29 08:54:04;;;;;;;;;;;;;;;23.04;70.74;100215.16;4941474;28;4338;-66
2023/07/29 08:56:30;;;;;;;;;;;;;;;23.10;70.68;100215.31;4939427;28;4142;-65
2023/07/29 08:58:57;;;;;;;;;;;;;;;23.05;71.03;100225.31;4941741;28;4297;-65
2023/07/29 09:01:24;;;;;;;;;;;;;;;22.97;71.25;100214.97;4939902;28;4201;-65
2023/07/29 09:03:50;;;;;;;;;;;;;;;23.04;71.18;100212.28;4973161;28;4182;-65
2023/07/29 09:06:17;;;;;;;;;;;;;;;23.08;70.84;100215.28;4941948;28;4157;-65
2023/07/29 09:08:43;;;;;;;;;;;;;;;22.97;70.82;100209.19;4972065;28;4160;-66
2023/07/29 09:11:10;;;;;;;;;;;;;;;22.95;70.85;100212.06;4958589;28;4061;-65
2023/07/29 09:13:36;;;;;;;;;;;;;;;23.04;70.91;100206.50;4970727;28;4149;-65
2023/07/29 09:16:03;;;;;;;;;;;;;;;23.07;70.26;100200.09;4954206;28;4083;-65
2023/07/29 09:18:29;;;;;;;;;;;;;;;23.03;70.71;100194.22;4936387;28;4160;-66
2023/07/29 09:20:55;;;;;;;;;;;;;;;23.19;70.62;100194.63;4974321;28;4421;-65
2023/07/29 09:23:22;;;;;;;;;;;;;;;23.23;70.16;100194.00;4973670;28;4050;-65
2023/07/29 09:25:48;;;;;;;;;;;;;;;23.25;69.95;100187.50;4943648;28;4124;-65
2023/07/29 09:28:15;;;;;;;;;;;;;;;23.18;70.17;100187.38;4940600;28;4114;-65
2023/07/29 09:30:42;;;;;;;;;;;;;;;23.22;70.23;100186.72;4943890;28;4327;-65
2023/07/29 09:33:09;;;;;;;;;;;;;;;23.20;69.93;100183.78;4943240;28;4156;-65
2023/07/29 09:35:36;;;;;;;;;;;;;;;23.23;69.49;100182.44;4943435;28;4176;-65
2023/07/29 09:38:03;;;;;;;;;;;;;;;23.23;69.92;100182.44;4941371;28;4129;-65
2023/07/29 09:40:36;;;;;;;;;;;;;;;23.22;69.51;100175.19;4932128;28;4381;-66
2023/07/29 09:43:03;;;;;;;;;;;;;;;23.28;70.01;100165.94;4972047;28;4243;-65
2023/07/29 09:45:30;;;;;;;;;;;;;;;23.25;69.62;100165.16;4939035;28;4180;-66
2023/07/29 09:47:56;;;;;;;;;;;;;;;23.30;69.75;100166.00;4973599;28;4065;-66
2023/07/29 09:50:23;;;;;;;;;;;;;;;23.37;69.66;100168.31;4941752;28;4160;-65
2023/07/29 09:52:50;;;;;;;;;;;;;;;23.36;69.10;100155.28;4941440;28;4209;-65
2023/07/29 09:55:23;;;;;;;;;;;;;;;23.26;69.26;100145.66;4971665;28;4136;-66
2023/07/29 09:57:53;;;;;;;;;;;;;;;23.34;69.04;100143.72;4938628;28;4019;-64
2023/07/29 10:00:19;;;;;;;;;;;;;;;23.37;68.43;100133.66;4943672;28;4181;-64
2023/07/29 10:02:46;;;;;;;;;;;;;;;23.40;68.44;100143.81;4937692;28;4137;-64
2023/07/29 10:05:12;;;;;;;;;;;;;;;23.34;68.60;100135.03;4968641;28;4068;-64
2023/07/29 10:07:39;;;;;;;;;;;;;;;23.29;68.55;100133.47;4938456;28;4586;-65
2023/07/29 10:10:06;;;;;;;;;;;;;;;23.29;68.66;100135.63;4941530;28;4157;-64
2023/07/29 10:12:32;;;;;;;;;;;;;;;23.28;68.69;100119.72;4937864;28;4158;-67
2023/07/29 10:14:59;;;;;;;;;;;;;;;23.24;68.81;100126.13;4934952;28;4230;-67
2023/07/29 10:17:25;;;;;;;;;;;;;;;23.55;70.51;100126.81;4940744;28;4154;-66
2023/07/29 10:19:52;;;;;;;;;;;;;;;23.60;69.70;100125.47;4940978;28;4133;-65
2023/07/29 10:22:19;;;;;;;;;;;;;;;23.65;69.31;100132.81;4944187;28;3908;-65
2023/07/29 10:24:46;;;;;;;;;;;;;;;23.68;69.06;100131.41;4940721;28;4353;-69
2023/07/29 10:27:13;;;;;;;;;;;;;;;23.60;68.21;100139.94;4942756;28;4143;-64
2023/07/29 10:29:40;;;;;;;;;;;;;;;23.34;67.86;100134.28;4971410;28;4325;-65
2023/07/29 10:32:06;;;;;;;;;;;;;;;23.27;67.98;100139.19;4969711;28;4148;-64
2023/07/29 10:34:34;;;;;;;;;;;;;;;23.30;67.80;100129.16;4929303;28;4559;-62
2023/07/29 10:37:00;;;;;;;;;;;;;;;23.28;68.24;100120.44;4941051;28;4526;-64
2023/07/29 10:39:26;;;;;;;;;;;;;;;23.31;68.37;100116.19;4969697;28;4482;-76
2023/07/29 10:41:56;;;;;;;;;;;;;;;23.40;68.69;100102.66;4930583;28;4255;-74
2023/07/29 10:44:54;;;;;;;;;;;;;;;23.56;68.92;100090.72;4963477;28;4206;-74
2023/07/29 10:47:23;;;;;;;;;;;;;;;23.32;71.33;100111.88;4938864;28;4021;-76
2023/07/29 10:49:51;;;;;;;;;;;;;;;23.42;72.30;100125.81;4965322;28;4143;-68
2023/07/29 10:52:28;;;;;;;;;;;;;;;23.38;71.62;100163.28;4933717;28;4011;-71
2023/07/29 10:54:54;;;;;;;;;;;;;;;23.38;70.58;100169.78;4938504;28;4352;-75
2023/07/29 10:57:37;;;;;;;;;;;;;;;23.50;70.09;100180.16;4938260;28;5663;-73
2023/07/29 11:00:04;;;;;;;;;;;;;;;23.50;69.16;100163.56;4939720;28;4885;-75
2023/07/29 11:02:32;;;;;;;;;;;;;;;23.54;68.82;100168.69;4934127;28;5583;-79
2023/07/29 11:04:59;;;;;;;;;;;;;;;23.57;68.70;100149.97;4932109;28;4975;-78
2023/07/29 11:07:26;;;;;;;;;;;;;;;23.59;68.07;100158.69;4938742;28;4025;-78
2023/07/29 11:10:05;;;;;;;;;;;;;;;23.61;68.09;100162.34;4936665;28;4148;-78
2023/07/29 11:12:37;;;;;;;;;;;;;;;23.62;67.79;100157.31;4938980;28;4202;-79
2023/07/29 11:15:04;;;;;;;;;;;;;;;23.62;67.88;100163.09;4941756;28;4184;-75
2023/07/29 11:17:31;;;;;;;;;;;;;;;23.54;68.20;100160.75;4937053;28;4487;-73
2023/07/29 11:19:57;;;;;;;;;;;;;;;23.49;67.94;100161.34;4966989;28;4146;-73
2023/07/29 11:22:23;;;;;;;;;;;;;;;23.50;68.13;100151.25;4973494;28;4165;-80
2023/07/29 11:24:50;;;;;;;;;;;;;;;23.58;67.90;100139.88;4940743;28;4050;-80
2023/07/29 11:27:16;;;;;;;;;;;;;;;23.57;67.78;100141.28;4937619;28;4099;-74
2023/07/29 11:29:43;;;;;;;;;;;;;;;23.58;67.79;100134.09;4937406;28;4513;-74
2023/07/29 11:32:10;;;;;;;;;;;;;;;23.58;67.22;100140.59;4940167;28;4185;-71
2023/07/29 11:34:36;;;;;;;;;;;;;;;23.60;67.42;100142.81;4967974;28;4139;-75
2023/07/29 11:37:04;;;;;;;;;;;;;;;23.62;67.38;100145.75;4942578;28;4157;-74
2023/07/29 11:39:30;;;;;;;;;;;;;;;23.63;67.10;100129.88;4937745;28;4003;-74
2023/07/29 11:41:56;;;;;;;;;;;;;;;23.64;67.13;100131.34;4935936;28;4088;-74
2023/07/29 11:44:23;;;;;;;;;;;;;;;23.55;67.32;100141.28;4931931;28;4089;-69
2023/07/29 11:46:49;;;;;;;;;;;;;;;23.48;67.48;100134.63;4938356;28;4244;-69
2023/07/29 11:49:16;;;;;;;;;;;;;;;23.46;67.26;100123.00;4929770;28;4444;-70
2023/07/29 11:51:42;;;;;;;;;;;;;;;23.45;67.26;100117.91;4937795;28;4205;-69
2023/07/29 11:54:08;;;;;;;;;;;;;;;23.45;67.18;100123.69;4931802;28;4194;-69
2023/07/29 11:56:35;;;;;;;;;;;;;;;23.41;67.04;100119.31;4941462;28;4149;-69
2023/07/29 11:59:02;;;;;;;;;;;;;;;23.41;67.24;100127.25;4935285;28;3932;-70
2023/07/29 12:01:29;;;;;;;;;;;;;;;23.39;67.02;100124.31;4970138;28;4166;-70
2023/07/29 12:03:55;;;;;;;;;;;;;;;23.42;67.09;100135.19;4936042;28;4490;-69
2023/07/29 12:06:23;;;;;;;;;;;;;;;23.40;68.13;100132.28;4940288;28;4107;-70
2023/07/29 12:08:49;;;;;;;;;;;;;;;23.39;68.50;100136.59;4939851;28;4338;-70
2023/07/29 12:11:19;;;;;;;;;;;;;;;23.38;68.91;100137.28;4940405;28;4247;-70
2023/07/29 12:13:46;;;;;;;;;;;;;;;23.38;68.81;100149.56;4938299;28;4171;-69
2023/07/29 12:16:16;;;;;;;;;;;;;;;23.36;68.58;100135.06;4940153;28;4003;-70
2023/07/29 12:18:42;;;;;;;;;;;;;;;23.35;68.92;100145.16;4938127;28;4571;-70
2023/07/29 12:21:09;;;;;;;;;;;;;;;23.33;68.79;100150.88;4939489;28;4035;-70
2023/07/29 12:23:35;;;;;;;;;;;;;;;23.35;68.86;100144.44;4941664;28;4382;-69
2023/07/29 12:26:02;;;;;;;;;;;;;;;23.35;68.78;100142.28;4941531;28;4018;-70
2023/07/29 12:28:28;;;;;;;;;;;;;;;23.31;68.70;100132.78;4939006;28;4137;-69
2023/07/29 12:30:55;;;;;;;;;;;;;;;23.33;68.10;100142.22;4969449;28;4377;-70
2023/07/29 12:33:32;;;;;;;;;;;;;;;23.33;68.50;100136.44;4970797;28;4070;-70
2023/07/29 12:35:58;;;;;;;;;;;;;;;23.28;70.61;100128.38;4939227;28;4160;-69
2023/07/29 12:38:28;;;;;;;;;;;;;;;23.29;72.08;100121.91;4937521;28;4517;-70
2023/07/29 12:40:54;;;;;;;;;;;;;;;23.32;71.15;100126.31;4936002;28;3989;-70
2023/07/29 12:43:21;;;;;;;;;;;;;;;23.40;70.54;100123.59;4938138;28;3912;-70
2023/07/29 12:45:50;;;;;;;;;;;;;;;23.36;71.85;100126.41;4940580;28;3933;-70
2023/07/29 12:48:17;;;;;;;;;;;;;;;23.36;71.66;100117.72;4939565;28;4069;-70